Time;durP1;ratioP1;P1;durP2;ratioP2;P2;SDS_P1;SDS_P2;PMS_P1;PMS_P2;Temp;Humidity;BMP_temperature;BMP_pressure;BME280_temperature;BME280_humidity;BME280_pressure;Samples;Min_cycle;Max_cycle;Signal;HPM_P1;HPM_P2
2021/03/28 00:04:13;;;;;;;27.50;13.60;;;;;;;3.16;80.72;99723.82;239647;1193;23109;-76
2021/03/28 00:09:27;;;;;;;41.43;19.00;;;;;;;2.95;80.74;99715.21;239736;1193;23115;-76
2021/03/28 00:14:42;;;;;;;45.17;19.77;;;;;;;2.80;81.16;99723.48;239529;1193;23102;-76
2021/03/28 00:19:52;;;;;;;41.90;20.25;;;;;;;2.72;81.23;99721.08;239985;1193;23098;-77
2021/03/28 00:25:08;;;;;;;41.40;20.40;;;;;;;2.67;81.19;99712.97;239802;1193;23137;-76
2021/03/28 00:30:30;;;;;;;54.13;26.00;;;;;;;2.70;81.58;99708.07;239931;1193;23244;-76
2021/03/28 00:35:53;;;;;;;35.55;17.93;;;;;;;2.77;82.27;99710.68;239503;1196;23124;-75
2021/03/28 00:41:17;;;;;;;25.40;13.27;;;;;;;2.85;82.31;99702.45;239670;1193;23275;-75
2021/03/28 00:46:56;;;;;;;23.27;11.53;;;;;;;2.94;81.94;99716.26;239728;1196;23138;-76
2021/03/28 00:52:05;;;;;;;19.55;10.58;;;;;;;3.06;82.31;99734.89;239374;1193;23135;-76
2021/03/28 00:57:36;;;;;;;15.43;7.50;;;;;;;3.21;82.13;99729.29;239698;1196;23106;-75
2021/03/28 01:03:02;;;;;;;16.27;9.13;;;;;;;3.32;81.91;99736.52;239551;1199;26398;-76
2021/03/28 01:08:32;;;;;;;16.00;7.67;;;;;;;3.48;81.60;99729.05;239812;1193;23109;-76
2021/03/28 01:14:14;;;;;;;15.45;8.40;;;;;;;3.60;81.61;99746.66;239802;1193;27345;-75
2021/03/28 01:19:39;;;;;;;15.27;7.57;;;;;;;3.66;80.98;99749.47;239643;1192;26380;-75
2021/03/28 01:24:51;;;;;;;14.45;6.60;;;;;;;3.72;80.45;99754.72;239794;1197;23186;-75
2021/03/28 01:30:12;;;;;;;10.77;5.50;;;;;;;3.78;80.18;99758.33;239702;1193;23327;-76
2021/03/28 01:35:31;;;;;;;8.05;4.10;;;;;;;3.76;79.55;99766.50;239900;1193;23264;-76
2021/03/28 01:40:43;;;;;;;8.30;4.70;;;;;;;3.79;78.97;99777.69;239834;1193;23104;-75
2021/03/28 01:45:53;;;;;;;6.33;4.40;;;;;;;3.82;78.63;99778.06;239726;1193;23075;-76
2021/03/28 01:51:21;;;;;;;10.27;4.53;;;;;;;3.77;78.22;99789.30;239577;1193;23210;-76
2021/03/28 01:56:38;;;;;;;6.50;3.43;;;;;;;3.74;77.79;99794.25;239785;1193;23131;-74
2021/03/28 02:02:00;;;;;;;6.87;3.43;;;;;;;3.70;77.32;99791.20;239943;1193;23180;-76
2021/03/28 02:07:20;;;;;;;10.17;4.50;;;;;;;3.54;76.83;99792.58;239591;1193;23273;-76
2021/03/28 02:12:52;;;;;;;6.25;3.75;;;;;;;3.47;77.46;99797.13;239671;1193;23109;-75
2021/03/28 02:18:29;;;;;;;5.70;3.40;;;;;;;3.41;77.78;99790.86;239851;1196;23091;-76
2021/03/28 02:23:44;;;;;;;5.40;3.33;;;;;;;3.42;77.82;99799.61;239948;1193;23102;-76
2021/03/28 02:29:14;;;;;;;5.10;3.20;;;;;;;3.38;77.89;99801.86;239436;1197;23100;-75
2021/03/28 02:34:37;;;;;;;6.00;3.30;;;;;;;3.40;78.22;99805.13;239728;1193;23262;-76
2021/03/28 02:39:50;;;;;;;6.15;3.50;;;;;;;3.42;77.92;99803.06;239524;1196;23112;-75
2021/03/28 02:44:58;;;;;;;7.40;4.30;;;;;;;3.42;77.86;99818.95;239598;1193;23118;-75
2021/03/28 02:50:19;;;;;;;6.07;3.73;;;;;;;3.40;77.93;99804.30;239729;1193;23106;-75
2021/03/28 02:55:37;;;;;;;6.50;3.75;;;;;;;3.39;77.76;99815.94;239793;1193;23109;-74
2021/03/28 03:01:31;;;;;;;7.40;4.35;;;;;;;3.38;77.38;99814.31;239466;1193;23098;-75
2021/03/28 03:06:56;;;;;;;6.20;4.00;;;;;;;3.40;77.19;99822.84;239558;1196;23155;-77
2021/03/28 03:12:22;;;;;;;9.10;5.13;;;;;;;3.36;76.87;99829.62;239763;1193;24565;-75
2021/03/28 03:17:54;;;;;;;7.05;4.10;;;;;;;3.32;77.61;99834.52;239548;1193;23354;-76
2021/03/28 03:23:15;;;;;;;6.97;4.20;;;;;;;3.39;77.72;99837.13;239543;1196;23121;-76
2021/03/28 03:28:46;;;;;;;7.33;4.43;;;;;;;3.38;77.31;99833.65;239657;1196;23125;-76
2021/03/28 03:34:13;;;;;;;10.25;4.90;;;;;;;3.35;77.60;99838.58;239712;1193;23111;-75
2021/03/28 03:39:57;;;;;;;9.07;4.63;;;;;;;3.34;76.96;99844.90;239670;1194;23109;-76
2021/03/28 03:45:19;;;;;;;10.87;5.90;;;;;;;3.35;77.26;99839.38;239707;1199;27501;-75
2021/03/28 03:50:53;;;;;;;16.67;8.50;;;;;;;3.33;77.53;99846.75;239772;1193;23105;-75
2021/03/28 03:56:27;;;;;;;17.93;7.93;;;;;;;3.30;77.06;99849.80;239682;1196;23102;-75
2021/03/28 04:01:35;;;;;;;10.03;6.27;;;;;;;3.27;76.60;99852.88;239869;1199;23127;-75
2021/03/28 04:06:59;;;;;;;10.35;5.75;;;;;;;3.24;77.24;99859.41;239688;1193;23263;-76
2021/03/28 04:12:20;;;;;;;8.60;4.85;;;;;;;3.17;77.03;99860.49;239928;1193;23109;-75
2021/03/28 04:17:23;;;;;;;7.97;5.40;;;;;;;3.08;77.40;99865.23;239707;1194;23126;-75
2021/03/28 04:23:00;;;;;;;8.67;5.20;;;;;;;3.02;76.85;99876.65;239639;1193;23101;-75
2021/03/28 04:28:25;;;;;;;9.05;5.25;;;;;;;2.94;77.70;99877.72;239732;1199;23132;-75
2021/03/28 04:34:13;;;;;;;10.40;6.10;;;;;;;2.86;77.49;99873.47;239779;1193;24539;-75
2021/03/28 04:39:38;;;;;;;9.80;6.70;;;;;;;2.83;77.80;99888.97;239636;1193;23138;-76
2021/03/28 04:45:02;;;;;;;10.75;6.55;;;;;;;2.76;76.88;99896.93;239723;1193;23090;-75
2021/03/28 04:50:25;;;;;;;9.33;5.93;;;;;;;2.62;77.34;99904.09;239626;1193;26487;-75
2021/03/28 04:55:57;;;;;;;8.33;5.30;;;;;;;2.48;77.41;99913.09;239724;1193;23096;-75
2021/03/28 05:01:10;;;;;;;7.73;5.23;;;;;;;2.35;77.28;99924.48;239795;1193;24888;-75
2021/03/28 05:06:22;;;;;;;8.27;5.57;;;;;;;2.25;77.45;99927.55;239651;1193;23094;-76
2021/03/28 05:12:12;;;;;;;8.33;5.77;;;;;;;2.18;77.52;99935.52;239809;1193;23109;-76
2021/03/28 05:17:44;;;;;;;9.27;5.57;;;;;;;2.11;77.56;99949.73;239901;1193;23817;-75
2021/03/28 05:23:25;;;;;;;8.45;5.15;;;;;;;2.12;77.75;99956.66;239712;1196;23101;-75
2021/03/28 05:29:09;;;;;;;9.63;5.77;;;;;;;2.18;77.97;99969.88;239807;1193;23101;-75
2021/03/28 05:34:43;;;;;;;9.85;5.65;;;;;;;2.44;78.03;99972.71;239889;1193;23116;-76
2021/03/28 05:40:08;;;;;;;9.80;5.90;;;;;;;2.68;78.65;99981.83;239739;1193;23102;-75
2021/03/28 05:45:30;;;;;;;8.77;5.70;;;;;;;2.87;78.55;99988.91;239714;1196;23112;-75
2021/03/28 05:50:44;;;;;;;11.53;5.37;;;;;;;3.04;77.84;99981.31;239806;1193;23105;-76
2021/03/28 05:56:27;;;;;;;8.57;5.50;;;;;;;3.20;77.91;99995.11;239751;1193;23104;-74
2021/03/28 06:01:45;;;;;;;17.50;7.75;;;;;;;3.41;77.82;100000.13;239628;1196;23146;-76
2021/03/28 06:07:17;;;;;;;7.83;5.17;;;;;;;3.66;77.66;100009.98;239651;1196;23267;-75
2021/03/28 06:12:59;;;;;;;8.20;4.60;;;;;;;3.90;77.47;100019.03;239428;1196;23105;-74
2021/03/28 06:18:23;;;;;;;7.80;5.00;;;;;;;4.06;76.85;100019.55;239806;1199;23368;-76
2021/03/28 06:23:28;;;;;;;6.10;4.27;;;;;;;4.30;76.54;100028.54;239697;1193;23133;-74
2021/03/28 06:28:58;;;;;;;7.67;4.67;;;;;;;4.45;76.44;100031.69;239757;1193;26260;-75
2021/03/28 06:34:10;;;;;;;5.45;4.00;;;;;;;4.70;76.40;100030.03;239814;1193;23121;-75
2021/03/28 06:39:35;;;;;;;6.43;4.57;;;;;;;4.81;75.63;100047.89;239912;1193;23102;-75
2021/03/28 06:45:10;;;;;;;6.70;4.50;;;;;;;4.89;74.63;100047.62;239759;1197;23115;-75
2021/03/28 06:50:30;;;;;;;7.57;5.03;;;;;;;4.82;73.59;100054.84;239813;1193;23103;-75
2021/03/28 06:55:44;;;;;;;6.37;4.23;;;;;;;4.66;73.37;100052.73;240884;1193;23094;-74
2021/03/28 07:01:27;;;;;;;6.75;4.20;;;;;;;4.63;73.24;100057.46;239606;1193;23273;-75
2021/03/28 07:06:54;;;;;;;6.20;3.50;;;;;;;4.62;73.47;100058.48;239934;1195;23124;-74
2021/03/28 07:12:18;;;;;;;5.90;3.80;;;;;;;4.66;73.30;100053.56;239819;1196;23159;-75
2021/03/28 07:17:48;;;;;;;7.60;4.53;;;;;;;4.73;73.05;100059.63;239817;1193;23111;-75
2021/03/28 07:22:51;;;;;;;;;;;;;;;4.87;72.77;100065.63;239891;1196;23139;-74
2021/03/28 07:28:47;;;;;;;6.73;3.57;;;;;;;5.03;72.43;100068.74;239631;1193;21594;-75
2021/03/28 07:34:15;;;;;;;4.07;3.30;;;;;;;5.31;72.08;100078.86;239745;1193;23123;-75
2021/03/28 07:39:29;;;;;;;4.63;3.43;;;;;;;5.63;71.32;100084.83;239869;1196;23109;-74
2021/03/28 07:44:35;;;;;;;6.27;3.00;;;;;;;5.99;70.91;100079.71;239795;1196;23109;-75
2021/03/28 07:49:56;;;;;;;5.20;3.07;;;;;;;6.24;70.85;100078.73;239621;1193;23110;-75
2021/03/28 07:55:28;;;;;;;6.60;3.73;;;;;;;6.21;68.65;100092.49;239761;1193;23188;-75
2021/03/28 08:00:42;;;;;;;7.13;3.73;;;;;;;6.36;68.71;100084.09;239619;1193;23219;-75
2021/03/28 08:06:32;;;;;;;4.93;4.07;;;;;;;6.63;68.25;100095.13;239685;1193;23125;-74
2021/03/28 08:11:55;;;;;;;5.20;3.00;;;;;;;6.90;66.30;100110.66;239940;1193;23125;-73
2021/03/28 08:17:09;;;;;;;5.57;2.30;;;;;;;6.61;65.15;100121.19;239617;1196;23139;-74
2021/03/28 08:22:55;;;;;;;3.87;2.30;;;;;;;6.49;65.91;100110.49;239588;1193;26121;-76
2021/03/28 08:28:02;;;;;;;4.80;2.30;;;;;;;6.68;65.06;100111.23;239685;1193;23079;-74
2021/03/28 08:33:23;;;;;;;3.47;2.30;;;;;;;6.89;65.80;100109.06;239703;1193;23564;-75
2021/03/28 08:38:51;;;;;;;2.97;2.10;;;;;;;6.94;65.32;100109.98;239591;1196;23126;-74
2021/03/28 08:44:05;;;;;;;3.50;2.45;;;;;;;6.78;64.37;100105.34;239559;1196;23123;-74
2021/03/28 08:49:14;;;;;;;2.97;2.10;;;;;;;6.80;63.82;100112.06;239724;1197;23117;-75
2021/03/28 08:54:36;;;;;;;5.07;2.70;;;;;;;6.85;64.49;100098.05;239625;1193;23102;-75
2021/03/28 09:00:20;;;;;;;6.97;4.00;;;;;;;6.98;64.03;100108.48;239438;1199;24574;-75
2021/03/28 09:05:32;;;;;;;3.73;2.40;;;;;;;7.11;64.18;100102.11;239730;1198;23138;-75
2021/03/28 09:11:10;;;;;;;5.40;2.80;;;;;;;6.98;63.40;100102.33;239641;1193;23102;-75
2021/03/28 09:16:35;;;;;;;4.90;2.93;;;;;;;7.27;64.54;100092.58;239727;1193;23100;-78
2021/03/28 09:22:09;;;;;;;3.60;2.63;;;;;;;7.57;63.48;100094.28;239677;1193;23279;-74
2021/03/28 09:27:36;;;;;;;5.90;2.50;;;;;;;7.80;62.29;100087.25;239623;1196;23810;-75
2021/03/28 09:32:59;;;;;;;4.10;2.50;;;;;;;7.98;61.58;100089.72;239713;1196;24730;-74
2021/03/28 09:38:14;;;;;;;4.97;2.50;;;;;;;8.25;60.34;100088.33;239778;1196;23133;-75
2021/03/28 09:43:56;;;;;;;3.15;2.00;;;;;;;8.40;60.43;100084.05;239831;1194;23139;-74
2021/03/28 09:49:29;;;;;;;2.40;1.60;;;;;;;8.38;59.41;100078.16;239612;1196;23685;-74
2021/03/28 09:54:52;;;;;;;4.00;2.03;;;;;;;8.53;59.02;100079.47;239872;1193;23106;-75
2021/03/28 10:00:26;;;;;;;5.37;2.00;;;;;;;8.61;57.96;100071.06;239630;1193;23184;-77
2021/03/28 10:05:33;;;;;;;4.40;1.97;;;;;;;8.67;57.85;100071.95;239659;1196;23244;-75
2021/03/28 10:11:13;;;;;;;49.20;32.90;;;;;;;8.94;57.52;100073.94;239606;1196;23094;-75
2021/03/28 10:16:49;;;;;;;4.73;2.47;;;;;;;9.06;55.80;100078.13;239647;1193;23128;-75
2021/03/28 10:22:29;;;;;;;5.27;2.53;;;;;;;9.07;55.71;100074.41;239550;1196;23115;-76
2021/03/28 10:27:41;;;;;;;3.88;2.00;;;;;;;9.21;55.61;100068.72;239735;1193;23137;-75
2021/03/28 10:33:12;;;;;;;4.30;2.10;;;;;;;9.53;55.31;100060.02;239683;1199;23130;-75
2021/03/28 10:38:31;;;;;;;2.50;2.00;;;;;;;9.77;54.57;100052.53;239850;1196;23108;-75
2021/03/28 10:44:00;;;;;;;4.83;1.77;;;;;;;9.78;53.29;100059.50;239521;1196;23129;-75
2021/03/28 10:49:35;;;;;;;3.70;1.70;;;;;;;9.74;53.20;100067.21;239656;1193;23123;-76
2021/03/28 10:54:55;;;;;;;4.87;2.57;;;;;;;9.73;53.77;100070.94;239494;1193;23111;-75
2021/03/28 11:00:13;;;;;;;2.40;1.97;;;;;;;9.90;52.64;100068.17;239559;1199;26159;-75
2021/03/28 11:05:34;;;;;;;2.47;2.00;;;;;;;10.21;50.94;100067.67;239710;1196;23126;-75
2021/03/28 11:10:57;;;;;;;4.57;2.10;;;;;;;10.42;51.83;100061.47;239856;1193;23144;-75
2021/03/28 11:16:21;;;;;;;4.90;2.00;;;;;;;10.63;49.94;100060.81;239469;1196;23115;-76
2021/03/28 11:21:35;;;;;;;3.55;1.55;;;;;;;10.60;45.37;100062.13;239728;1193;23103;-75
2021/03/28 11:27:11;;;;;;;2.73;1.30;;;;;;;10.54;45.57;100066.64;239799;1193;23121;-75
2021/03/28 11:32:33;;;;;;;2.63;1.00;;;;;;;10.47;46.60;100057.22;239674;1193;23103;-75
2021/03/28 11:38:14;;;;;;;2.40;1.20;;;;;;;10.64;46.01;100060.55;239547;1198;23253;-76
2021/03/28 11:43:38;;;;;;;1.97;0.83;;;;;;;10.79;46.58;100055.30;239705;1193;23103;-75
2021/03/28 11:49:02;;;;;;;4.50;2.03;;;;;;;10.92;47.23;100048.67;239472;1196;23131;-75
2021/03/28 11:54:15;;;;;;;3.17;1.40;;;;;;;10.82;45.91;100059.34;239666;1193;23129;-75
2021/03/28 11:59:24;;;;;;;2.80;1.30;;;;;;;10.76;46.71;100055.81;239730;1193;24759;-76
2021/03/28 12:04:30;;;;;;;2.55;1.33;;;;;;;10.70;45.97;100062.22;239856;1193;23109;-75
2021/03/28 12:09:34;;;;;;;4.45;1.40;;;;;;;10.65;46.25;100055.98;240006;1193;23112;-75
2021/03/28 12:14:39;;;;;;;2.93;1.70;;;;;;;10.66;46.55;100062.97;239623;1196;23111;-76
2021/03/28 12:19:53;;;;;;;3.55;1.40;;;;;;;10.76;44.99;100047.78;239692;1196;23242;-75
2021/03/28 12:25:14;;;;;;;4.30;2.00;;;;;;;10.73;45.89;100050.98;239843;1199;23109;-76
2021/03/28 12:30:33;;;;;;;3.40;1.70;;;;;;;10.66;45.38;100063.80;239914;1194;23214;-75
2021/03/28 12:35:48;;;;;;;3.00;1.90;;;;;;;10.74;46.16;100047.21;239666;1193;23227;-75
2021/03/28 12:41:10;;;;;;;5.53;2.10;;;;;;;10.84;46.82;100057.19;239884;1193;23132;-75
2021/03/28 12:46:28;;;;;;;4.70;1.80;;;;;;;10.90;44.95;100047.34;239714;1194;23141;-75
2021/03/28 12:51:31;;;;;;;3.80;2.47;;;;;;;11.08;45.83;100040.70;239582;1193;23109;-76
2021/03/28 12:56:35;;;;;;;3.47;1.70;;;;;;;11.38;44.98;100040.05;239542;1196;23251;-76
2021/03/28 13:01:38;;;;;;;4.25;2.00;;;;;;;11.57;45.39;100028.83;239815;1193;23119;-75
2021/03/28 13:06:48;;;;;;;3.10;1.80;;;;;;;11.71;43.16;100032.66;239638;1193;23128;-75
2021/03/28 13:11:51;;;;;;;3.10;1.80;;;;;;;11.67;43.57;100018.14;239744;1193;23109;-75
2021/03/28 13:16:58;;;;;;;3.55;1.90;;;;;;;11.57;42.85;100020.78;239911;1193;23094;-75
2021/03/28 13:22:22;;;;;;;2.50;1.40;;;;;;;11.57;44.67;100021.61;239563;1193;23127;-76
2021/03/28 13:27:25;;;;;;;1.90;1.40;;;;;;;11.51;42.61;100014.59;239813;1196;23134;-75
2021/03/28 13:32:33;;;;;;;2.70;1.30;;;;;;;11.34;42.17;100014.81;239546;1196;26039;-76
2021/03/28 13:37:41;;;;;;;1.97;1.30;;;;;;;11.26;42.15;100023.36;239735;1193;23111;-75
2021/03/28 13:43:16;;;;;;;4.03;1.30;;;;;;;11.30;43.41;100005.67;239942;1193;23132;-75
2021/03/28 13:48:20;;;;;;;3.50;1.57;;;;;;;11.50;42.35;100010.32;239620;1199;26156;-74
2021/03/28 13:53:35;;;;;;;3.13;1.60;;;;;;;11.51;42.44;100001.17;239789;1193;23160;-75
2021/03/28 13:58:41;;;;;;;2.63;1.50;;;;;;;11.35;42.78;99997.66;239692;1193;23226;-76
2021/03/28 14:03:47;;;;;;;1.77;1.03;;;;;;;11.22;41.59;100001.64;239900;1195;26252;-75
2021/03/28 14:09:10;;;;;;;4.30;2.43;;;;;;;10.94;42.15;100008.19;239954;1193;23129;-75
2021/03/28 14:14:28;;;;;;;3.43;1.53;;;;;;;10.83;43.24;100006.52;239682;1199;23156;-76
2021/03/28 14:19:36;;;;;;;4.65;1.70;;;;;;;10.81;43.88;100003.31;239732;1193;23244;-75
2021/03/28 14:24:41;;;;;;;5.60;1.80;;;;;;;10.78;44.01;100002.75;239855;1194;23105;-75
2021/03/28 14:29:46;;;;;;;4.07;2.10;;;;;;;10.72;43.99;100000.31;239595;1196;23127;-76
2021/03/28 14:35:27;;;;;;;1.90;1.30;;;;;;;10.66;44.16;99995.98;239885;1193;23111;-75
2021/03/28 14:40:50;;;;;;;4.30;2.10;;;;;;;10.56;44.20;99994.87;239629;1199;23127;-76
2021/03/28 14:46:27;;;;;;;5.27;3.33;;;;;;;10.59;44.77;99996.20;239524;1197;23268;-74
2021/03/28 14:51:44;;;;;;;5.70;2.20;;;;;;;10.52;44.67;99993.77;239558;1193;23125;-75
2021/03/28 14:56:55;;;;;;;3.80;2.00;;;;;;;10.34;44.47;100000.33;239636;1199;23144;-76
2021/03/28 15:02:39;;;;;;;2.33;1.70;;;;;;;10.09;44.83;99990.99;239572;1193;23103;-75
2021/03/28 15:08:00;;;;;;;5.63;2.23;;;;;;;9.90;44.96;99987.08;239771;1193;23132;-76
2021/03/28 15:13:28;;;;;;;3.70;2.00;;;;;;;9.78;45.54;99984.57;239609;1194;23102;-75
2021/03/28 15:18:54;;;;;;;6.57;2.00;;;;;;;9.72;45.88;99994.42;239714;1196;23128;-74
2021/03/28 15:24:15;;;;;;;3.50;2.10;;;;;;;9.67;46.36;99993.56;239815;1193;23096;-75
2021/03/28 15:29:23;;;;;;;3.73;1.85;;;;;;;9.61;45.91;99987.32;239637;1193;24210;-75
2021/03/28 15:35:03;;;;;;;4.57;2.50;;;;;;;9.61;46.80;99981.17;239986;1193;23107;-75
2021/03/28 15:40:37;;;;;;;3.63;2.00;;;;;;;9.52;46.50;99978.95;239792;1196;23132;-76
2021/03/28 15:46:05;;;;;;;3.65;2.20;;;;;;;9.52;46.45;99975.48;239766;1199;23130;-76
2021/03/28 15:51:29;;;;;;;5.17;2.63;;;;;;;9.68;46.14;99982.60;240090;1193;23108;-76
2021/03/28 15:56:58;;;;;;;3.63;2.00;;;;;;;9.81;46.83;99976.03;239627;1193;25779;-75
2021/03/28 16:02:31;;;;;;;3.77;2.40;;;;;;;9.88;46.33;99973.16;239613;1193;23280;-76
2021/03/28 16:08:06;;;;;;;3.30;2.17;;;;;;;9.75;45.31;99977.86;239691;1193;23102;-75
2021/03/28 16:13:41;;;;;;;4.20;2.17;;;;;;;9.57;45.35;99975.54;239679;1199;23109;-75
2021/03/28 16:18:57;;;;;;;4.00;2.30;;;;;;;9.39;46.03;99987.38;239631;1199;26130;-77
2021/03/28 16:24:20;;;;;;;6.30;2.80;;;;;;;9.20;46.05;99985.00;239505;1199;23134;-76
2021/03/28 16:29:42;;;;;;;5.60;2.80;;;;;;;9.01;46.08;99981.85;239662;1193;23164;-75
2021/03/28 16:35:06;;;;;;;5.33;2.53;;;;;;;8.81;46.11;99981.58;239529;1196;23279;-76
2021/03/28 16:40:21;;;;;;;6.70;3.10;;;;;;;8.64;46.37;99974.41;239725;1193;23102;-76
2021/03/28 16:45:35;;;;;;;5.35;3.00;;;;;;;8.46;46.91;99980.02;239659;1199;23095;-77
2021/03/28 16:50:56;;;;;;;8.65;2.45;;;;;;;8.26;47.56;99975.95;239551;1195;23134;-75
2021/03/28 16:56:02;;;;;;;5.60;2.60;;;;;;;8.05;47.88;99972.95;239579;1199;25190;-75
2021/03/28 17:01:10;;;;;;;4.60;2.40;;;;;;;7.87;48.03;99976.66;239626;1196;23116;-75
2021/03/28 17:06:23;;;;;;;5.60;2.73;;;;;;;7.76;47.60;99987.41;239649;1196;23113;-74
2021/03/28 17:11:26;;;;;;;5.40;2.90;;;;;;;7.67;48.08;99979.78;239916;1193;23206;-75
2021/03/28 17:16:33;;;;;;;5.65;2.90;;;;;;;7.59;48.50;99982.03;239767;1193;23133;-74
2021/03/28 17:21:41;;;;;;;6.07;3.27;;;;;;;7.49;48.50;99982.66;239782;1193;24345;-76
2021/03/28 17:26:46;;;;;;;9.43;3.70;;;;;;;7.38;48.74;99984.31;239603;1193;23100;-76
2021/03/28 17:31:52;;;;;;;6.60;3.33;;;;;;;7.23;48.73;99986.67;239799;1193;23102;-74
2021/03/28 17:36:55;;;;;;;8.47;4.43;;;;;;;7.07;48.55;99985.57;239695;1193;24029;-75
2021/03/28 17:42:00;;;;;;;10.90;4.80;;;;;;;6.91;49.15;99979.92;239560;1193;23110;-75
2021/03/28 17:47:16;;;;;;;10.70;5.17;;;;;;;6.71;49.78;99990.13;239676;1193;23154;-75
2021/03/28 17:52:22;;;;;;;12.33;6.27;;;;;;;6.48;49.97;99991.77;239441;1196;23264;-75
2021/03/28 17:57:34;;;;;;;13.97;5.97;;;;;;;6.26;50.62;99994.97;239717;1193;25965;-75
2021/03/28 18:02:39;;;;;;;13.20;7.17;;;;;;;6.05;51.26;100006.97;239601;1198;23114;-74
2021/03/28 18:07:52;;;;;;;15.93;7.70;;;;;;;5.85;51.59;100004.58;239649;1196;23284;-76
2021/03/28 18:13:30;;;;;;;12.73;6.90;;;;;;;5.65;51.83;100005.67;239779;1193;23148;-76
2021/03/28 18:18:41;;;;;;;12.00;6.87;;;;;;;5.46;52.16;100017.38;239683;1196;23121;-75
2021/03/28 18:23:44;;;;;;;14.83;7.20;;;;;;;5.29;52.77;100006.55;239750;1195;23080;-74
2021/03/28 18:28:47;;;;;;;14.63;8.20;;;;;;;5.12;53.06;100012.45;239818;1193;23102;-75
2021/03/28 18:34:02;;;;;;;18.50;8.67;;;;;;;4.99;53.17;100007.28;239633;1193;23109;-76
2021/03/28 18:39:15;;;;;;;16.05;8.70;;;;;;;4.88;53.30;100011.50;239614;1193;23119;-75
2021/03/28 18:44:21;;;;;;;20.40;12.75;;;;;;;4.79;53.35;100012.80;239802;1193;23110;-75
2021/03/28 18:49:33;;;;;;;18.07;9.80;;;;;;;4.70;53.83;100014.11;239699;1193;23253;-75
2021/03/28 18:54:38;;;;;;;18.85;10.78;;;;;;;4.57;54.47;100023.01;240002;1193;23102;-75
2021/03/28 18:59:42;;;;;;;46.30;22.53;;;;;;;4.44;54.81;100015.98;239620;1196;23618;-75
2021/03/28 19:04:45;;;;;;;46.70;22.20;;;;;;;4.34;55.21;100029.73;239773;1193;23121;-75
2021/03/28 19:09:51;;;;;;;47.93;25.07;;;;;;;4.24;55.40;100032.87;239618;1193;23102;-75
2021/03/28 19:15:19;;;;;;;58.55;28.45;;;;;;;4.15;55.93;100031.50;239956;1196;23134;-75
2021/03/28 19:21:03;;;;;;;70.30;32.60;;;;;;;4.05;55.71;100034.63;239943;1193;23199;-75
2021/03/28 19:26:15;;;;;;;75.60;34.35;;;;;;;4.00;56.05;100036.30;239822;1199;23234;-75
2021/03/28 19:31:37;;;;;;;81.60;38.47;;;;;;;3.93;56.21;100031.02;239882;1199;23122;-73
2021/03/28 19:36:40;;;;;;;90.00;39.10;;;;;;;3.85;56.27;100032.11;239547;1199;23256;-75
2021/03/28 19:41:43;;;;;;;80.63;38.57;;;;;;;3.82;56.55;100029.89;239585;1196;23249;-75
2021/03/28 19:47:00;;;;;;;109.75;51.95;;;;;;;3.81;57.08;100033.55;239761;1194;23086;-75
2021/03/28 19:52:15;;;;;;;107.50;47.60;;;;;;;3.80;57.42;100029.27;239687;1199;25968;-76
2021/03/28 19:57:27;;;;;;;107.65;48.60;;;;;;;3.76;57.58;100034.20;239825;1193;23125;-75
2021/03/28 20:02:35;;;;;;;122.00;52.23;;;;;;;3.70;58.15;100031.58;239875;1193;25680;-75
2021/03/28 20:08:20;;;;;;;133.53;60.30;;;;;;;3.61;57.82;100033.67;239706;1193;23100;-74
2021/03/28 20:13:28;;;;;;;137.40;58.43;;;;;;;3.52;58.30;100033.08;240073;1193;23224;-75
2021/03/28 20:18:31;;;;;;;168.53;72.97;;;;;;;3.48;58.48;100039.02;239550;1194;23241;-75
2021/03/28 20:23:35;;;;;;;176.43;80.70;;;;;;;3.45;58.48;100039.44;239552;1193;26089;-75
2021/03/28 20:28:39;;;;;;;187.13;83.60;;;;;;;3.44;58.39;100041.26;239520;1193;23116;-75
2021/03/28 20:33:46;;;;;;;191.60;83.50;;;;;;;3.40;59.04;100040.88;239677;1196;23106;-74
2021/03/28 20:38:57;;;;;;;167.05;76.30;;;;;;;3.35;58.92;100045.19;239983;1199;23259;-74
2021/03/28 20:44:08;;;;;;;172.80;77.70;;;;;;;3.29;59.09;100049.48;239546;1195;23116;-75
2021/03/28 20:49:13;;;;;;;176.33;74.67;;;;;;;3.22;58.88;100051.34;239541;1199;26220;-75
2021/03/28 20:54:18;;;;;;;192.65;78.75;;;;;;;3.20;59.53;100048.08;239632;1196;23109;-75
2021/03/28 20:59:21;;;;;;;203.30;80.40;;;;;;;3.19;59.88;100044.63;239588;1196;23121;-76
2021/03/28 21:04:27;;;;;;;190.20;78.63;;;;;;;3.18;59.51;100044.84;239775;1193;23166;-75
2021/03/28 21:09:32;;;;;;;196.43;76.43;;;;;;;3.15;59.73;100050.52;239782;1193;23101;-74
2021/03/28 21:14:36;;;;;;;177.67;74.13;;;;;;;3.07;59.74;100039.14;239600;1193;28293;-75
2021/03/28 21:19:46;;;;;;;179.77;69.77;;;;;;;3.00;60.51;100038.34;239841;1193;23262;-75
2021/03/28 21:24:50;;;;;;;170.50;67.63;;;;;;;2.93;60.61;100042.84;239580;1193;23174;-76
2021/03/28 21:29:53;;;;;;;182.90;72.10;;;;;;;2.90;60.63;100059.95;239780;1193;23118;-76
2021/03/28 21:34:56;;;;;;;183.20;70.67;;;;;;;2.88;60.87;100051.42;239632;1196;23169;-75
2021/03/28 21:40:01;;;;;;;188.75;73.10;;;;;;;2.85;61.04;100061.59;239648;1198;23115;-76
2021/03/28 21:45:08;;;;;;;169.45;69.25;;;;;;;2.76;61.02;100061.00;239733;1193;26156;-74
2021/03/28 21:50:15;;;;;;;159.70;65.65;;;;;;;2.68;61.54;100066.50;239814;1199;23105;-76
2021/03/28 21:55:17;;;;;;;173.40;66.47;;;;;;;2.61;61.42;100063.84;239642;1196;26220;-75
2021/03/28 22:00:28;;;;;;;157.30;63.75;;;;;;;2.54;61.52;100068.33;239811;1193;23113;-75
2021/03/28 22:05:32;;;;;;;180.55;70.65;;;;;;;2.52;62.30;100055.31;239886;1193;23142;-74
2021/03/28 22:10:53;;;;;;;172.35;72.00;;;;;;;2.54;62.48;100055.10;239553;1196;23123;-75
2021/03/28 22:15:58;;;;;;;168.85;68.05;;;;;;;2.51;62.94;100051.03;239664;1196;23115;-75
2021/03/28 22:21:07;;;;;;;142.20;56.80;;;;;;;2.47;62.74;100044.52;239585;1196;23109;-76
2021/03/28 22:26:12;;;;;;;135.53;55.87;;;;;;;2.48;62.85;100045.34;239506;1193;26096;-75
2021/03/28 22:31:16;;;;;;;142.80;57.43;;;;;;;2.50;63.56;100056.52;239765;1193;27319;-75
2021/03/28 22:36:18;;;;;;;130.80;53.35;;;;;;;2.50;63.00;100053.88;239685;1196;23141;-75
2021/03/28 22:41:21;;;;;;;114.80;47.70;;;;;;;2.46;62.95;100053.45;239496;1198;23131;-75
2021/03/28 22:46:25;;;;;;;97.67;38.27;;;;;;;2.37;62.90;100050.20;239559;1196;23118;-76
2021/03/28 22:51:29;;;;;;;117.10;46.77;;;;;;;2.30;63.48;100048.59;239540;1193;23242;-76
2021/03/28 22:56:34;;;;;;;134.90;54.47;;;;;;;2.27;63.02;100051.62;239838;1196;23138;-75
2021/03/28 23:01:37;;;;;;;125.10;50.93;;;;;;;2.28;63.18;100055.90;239601;1196;23115;-75
2021/03/28 23:06:58;;;;;;;125.65;51.00;;;;;;;2.33;64.14;100053.47;239577;1193;23111;-74
2021/03/28 23:12:01;;;;;;;123.43;50.30;;;;;;;2.38;63.77;100058.98;239771;1193;26244;-75
2021/03/28 23:17:10;;;;;;;134.63;52.60;;;;;;;2.44;64.10;100060.80;239674;1193;23116;-74
2021/03/28 23:22:13;;;;;;;141.60;54.80;;;;;;;2.50;63.80;100059.97;239663;1193;25039;-77
2021/03/28 23:27:18;;;;;;;127.35;53.60;;;;;;;2.59;64.59;100063.25;239730;1196;23172;-75
2021/03/28 23:32:21;;;;;;;127.77;51.80;;;;;;;2.67;64.17;100062.22;239665;1193;23126;-74
2021/03/28 23:37:23;;;;;;;121.95;47.40;;;;;;;2.72;64.41;100065.88;239450;1193;23170;-75
2021/03/28 23:42:29;;;;;;;112.03;45.60;;;;;;;2.77;64.57;100049.41;239543;1193;23102;-74
2021/03/28 23:47:33;;;;;;;97.90;40.05;;;;;;;2.78;64.56;100040.42;239596;1196;26132;-74
2021/03/28 23:52:39;;;;;;;109.07;45.10;;;;;;;2.77;64.91;100036.17;239637;1193;27454;-74
2021/03/28 23:57:43;;;;;;;101.85;40.70;;;;;;;2.79;64.57;100039.41;239829;1198;23105;-74
